sensor_id;sensor_type;location;lat;lon;timestamp;temperature;humidity
24338;DHT22;12457;50.832;4.346;2022-08-06T00:01:52;15.60;1.00
24338;DHT22;12457;50.832;4.346;2022-08-06T00:04:19;15.70;1.00
24338;DHT22;12457;50.832;4.346;2022-08-06T00:06:45;15.70;1.00
24338;DHT22;12457;50.832;4.346;2022-08-06T00:09:11;15.60;1.00
24338;DHT22;12457;50.832;4.346;2022-08-06T00:11:38;15.50;1.00
24338;DHT22;12457;50.832;4.346;2022-08-06T00:14:22;15.50;1.00
24338;DHT22;12457;50.832;4.346;2022-08-06T00:16:51;15.40;1.00
24338;DHT22;12457;50.832;4.346;2022-08-06T00:19:16;15.50;1.00
24338;DHT22;12457;50.832;4.346;2022-08-06T00:21:42;15.40;1.00
24338;DHT22;12457;50.832;4.346;2022-08-06T00:24:07;15.40;1.00
24338;DHT22;12457;50.832;4.346;2022-08-06T00:26:33;15.40;1.00
24338;DHT22;12457;50.832;4.346;2022-08-06T00:28:59;15.40;1.00
24338;DHT22;12457;50.832;4.346;2022-08-06T00:31:24;15.40;1.00
24338;DHT22;12457;50.832;4.346;2022-08-06T00:33:50;15.30;1.00
24338;DHT22;12457;50.832;4.346;2022-08-06T00:36:15;15.30;1.00
24338;DHT22;12457;50.832;4.346;2022-08-06T00:38:41;15.40;1.00
24338;DHT22;12457;50.832;4.346;2022-08-06T00:41:07;15.30;1.00
24338;DHT22;12457;50.832;4.346;2022-08-06T00:43:33;15.20;1.00
24338;DHT22;12457;50.832;4.346;2022-08-06T00:45:58;15.20;1.00
24338;DHT22;12457;50.832;4.346;2022-08-06T00:48:25;15.20;1.00
24338;DHT22;12457;50.832;4.346;2022-08-06T00:50:51;15.20;1.00
24338;DHT22;12457;50.832;4.346;2022-08-06T00:53:17;15.10;1.00
24338;DHT22;12457;50.832;4.346;2022-08-06T00:55:43;15.20;1.00
24338;DHT22;12457;50.832;4.346;2022-08-06T00:58:08;15.20;1.00
24338;DHT22;12457;50.832;4.346;2022-08-06T01:00:34;15.10;1.00
24338;DHT22;12457;50.832;4.346;2022-08-06T01:03:00;15.00;1.00
24338;DHT22;12457;50.832;4.346;2022-08-06T01:05:25;15.00;1.00
24338;DHT22;12457;50.832;4.346;2022-08-06T01:07:51;15.00;1.00
24338;DHT22;12457;50.832;4.346;2022-08-06T01:10:17;15.00;1.00
24338;DHT22;12457;50.832;4.346;2022-08-06T01:12:43;15.00;1.00
24338;DHT22;12457;50.832;4.346;2022-08-06T01:18:28;14.90;1.00
24338;DHT22;12457;50.832;4.346;2022-08-06T01:21:10;14.90;1.00
24338;DHT22;12457;50.832;4.346;2022-08-06T01:26:49;15.00;1.00
24338;DHT22;12457;50.832;4.346;2022-08-06T01:29:39;14.80;1.00
24338;DHT22;12457;50.832;4.346;2022-08-06T01:32:25;14.80;1.00
24338;DHT22;12457;50.832;4.346;2022-08-06T01:35:07;14.80;1.00
24338;DHT22;12457;50.832;4.346;2022-08-06T01:40:18;14.90;1.00
24338;DHT22;12457;50.832;4.346;2022-08-06T01:42:45;14.80;1.00
24338;DHT22;12457;50.832;4.346;2022-08-06T01:45:14;14.80;1.00
24338;DHT22;12457;50.832;4.346;2022-08-06T01:48:12;14.80;1.00
24338;DHT22;12457;50.832;4.346;2022-08-06T01:50:45;14.80;1.00
24338;DHT22;12457;50.832;4.346;2022-08-06T01:53:15;14.70;1.00
24338;DHT22;12457;50.832;4.346;2022-08-06T01:55:43;14.70;1.00
24338;DHT22;12457;50.832;4.346;2022-08-06T01:58:11;14.70;1.00
24338;DHT22;12457;50.832;4.346;2022-08-06T02:00:40;14.80;1.00
24338;DHT22;12457;50.832;4.346;2022-08-06T02:03:13;14.70;1.00
24338;DHT22;12457;50.832;4.346;2022-08-06T02:05:40;14.80;1.00
24338;DHT22;12457;50.832;4.346;2022-08-06T02:08:08;14.80;1.00
24338;DHT22;12457;50.832;4.346;2022-08-06T02:10:36;14.70;1.00
24338;DHT22;12457;50.832;4.346;2022-08-06T02:13:02;14.80;1.00
24338;DHT22;12457;50.832;4.346;2022-08-06T02:15:29;14.90;1.00
24338;DHT22;12457;50.832;4.346;2022-08-06T02:18:02;14.90;1.00
24338;DHT22;12457;50.832;4.346;2022-08-06T02:20:45;15.00;1.00
24338;DHT22;12457;50.832;4.346;2022-08-06T02:23:15;15.00;1.00
24338;DHT22;12457;50.832;4.346;2022-08-06T02:25:43;14.90;1.00
24338;DHT22;12457;50.832;4.346;2022-08-06T02:28:13;15.00;1.00
24338;DHT22;12457;50.832;4.346;2022-08-06T02:30:43;15.10;1.00
24338;DHT22;12457;50.832;4.346;2022-08-06T02:33:10;15.10;1.00
24338;DHT22;12457;50.832;4.346;2022-08-06T02:36:00;15.00;1.00
24338;DHT22;12457;50.832;4.346;2022-08-06T02:39:04;14.90;1.00
24338;DHT22;12457;50.832;4.346;2022-08-06T02:44:09;14.80;1.00
24338;DHT22;12457;50.832;4.346;2022-08-06T02:49:37;14.80;1.00
24338;DHT22;12457;50.832;4.346;2022-08-06T02:55:05;14.70;4.60
24338;DHT22;12457;50.832;4.346;2022-08-06T03:00:36;14.80;1.60
24338;DHT22;12457;50.832;4.346;2022-08-06T03:03:04;14.80;1.00
24338;DHT22;12457;50.832;4.346;2022-08-06T03:05:32;14.80;1.10
24338;DHT22;12457;50.832;4.346;2022-08-06T03:07:59;14.80;1.70
24338;DHT22;12457;50.832;4.346;2022-08-06T03:10:27;14.80;4.00
24338;DHT22;12457;50.832;4.346;2022-08-06T03:13:01;14.80;6.40
24338;DHT22;12457;50.832;4.346;2022-08-06T03:15:39;14.70;8.60
24338;DHT22;12457;50.832;4.346;2022-08-06T03:18:07;14.70;9.40
24338;DHT22;12457;50.832;4.346;2022-08-06T03:20:34;14.60;14.90
24338;DHT22;12457;50.832;4.346;2022-08-06T03:23:06;14.60;16.00
24338;DHT22;12457;50.832;4.346;2022-08-06T03:25:32;14.40;19.80
24338;DHT22;12457;50.832;4.346;2022-08-06T03:27:59;14.40;21.50
24338;DHT22;12457;50.832;4.346;2022-08-06T03:30:26;14.40;22.50
24338;DHT22;12457;50.832;4.346;2022-08-06T03:32:56;14.30;25.10
24338;DHT22;12457;50.832;4.346;2022-08-06T03:35:22;14.30;25.10
24338;DHT22;12457;50.832;4.346;2022-08-06T03:37:49;14.20;27.20
24338;DHT22;12457;50.832;4.346;2022-08-06T03:40:17;14.20;28.30
24338;DHT22;12457;50.832;4.346;2022-08-06T03:42:44;14.10;28.60
24338;DHT22;12457;50.832;4.346;2022-08-06T03:45:10;14.00;29.90
24338;DHT22;12457;50.832;4.346;2022-08-06T03:47:46;14.00;30.40
24338;DHT22;12457;50.832;4.346;2022-08-06T03:50:21;13.90;30.70
24338;DHT22;12457;50.832;4.346;2022-08-06T03:52:52;14.00;29.10
24338;DHT22;12457;50.832;4.346;2022-08-06T03:55:31;14.00;30.00
24338;DHT22;12457;50.832;4.346;2022-08-06T03:58:12;14.00;28.30
24338;DHT22;12457;50.832;4.346;2022-08-06T04:00:59;13.90;29.00
24338;DHT22;12457;50.832;4.346;2022-08-06T04:03:25;13.80;31.70
24338;DHT22;12457;50.832;4.346;2022-08-06T04:05:52;13.80;33.10
24338;DHT22;12457;50.832;4.346;2022-08-06T04:08:20;13.80;35.10
24338;DHT22;12457;50.832;4.346;2022-08-06T04:10:48;13.80;33.80
24338;DHT22;12457;50.832;4.346;2022-08-06T04:13:17;13.90;31.70
24338;DHT22;12457;50.832;4.346;2022-08-06T04:15:44;14.00;27.80
24338;DHT22;12457;50.832;4.346;2022-08-06T04:18:14;14.00;27.70
24338;DHT22;12457;50.832;4.346;2022-08-06T04:20:44;14.00;27.90
24338;DHT22;12457;50.832;4.346;2022-08-06T04:23:11;14.00;28.60
24338;DHT22;12457;50.832;4.346;2022-08-06T04:25:51;14.00;27.80
24338;DHT22;12457;50.832;4.346;2022-08-06T04:28:18;14.00;29.20
24338;DHT22;12457;50.832;4.346;2022-08-06T04:30:46;14.00;30.00
24338;DHT22;12457;50.832;4.346;2022-08-06T04:33:17;13.90;33.70
24338;DHT22;12457;50.832;4.346;2022-08-06T04:35:44;13.90;34.20
24338;DHT22;12457;50.832;4.346;2022-08-06T04:38:10;13.90;33.80
24338;DHT22;12457;50.832;4.346;2022-08-06T04:40:37;13.80;36.50
24338;DHT22;12457;50.832;4.346;2022-08-06T04:43:09;13.80;38.10
24338;DHT22;12457;50.832;4.346;2022-08-06T04:45:42;13.90;36.00
24338;DHT22;12457;50.832;4.346;2022-08-06T04:48:10;13.90;36.20
24338;DHT22;12457;50.832;4.346;2022-08-06T04:50:37;13.90;35.70
24338;DHT22;12457;50.832;4.346;2022-08-06T04:53:14;13.90;37.90
24338;DHT22;12457;50.832;4.346;2022-08-06T04:55:41;14.00;37.40
24338;DHT22;12457;50.832;4.346;2022-08-06T04:58:08;14.10;35.20
24338;DHT22;12457;50.832;4.346;2022-08-06T05:03:28;14.20;34.00
24338;DHT22;12457;50.832;4.346;2022-08-06T05:06:00;14.60;33.20
24338;DHT22;12457;50.832;4.346;2022-08-06T05:08:30;14.90;27.50
24338;DHT22;12457;50.832;4.346;2022-08-06T05:11:04;15.20;17.50
24338;DHT22;12457;50.832;4.346;2022-08-06T05:13:34;15.30;10.80
24338;DHT22;12457;50.832;4.346;2022-08-06T05:16:04;15.60;4.70
24338;DHT22;12457;50.832;4.346;2022-08-06T05:18:36;15.80;1.00
24338;DHT22;12457;50.832;4.346;2022-08-06T05:21:03;15.90;1.00
24338;DHT22;12457;50.832;4.346;2022-08-06T05:23:50;15.90;1.00
24338;DHT22;12457;50.832;4.346;2022-08-06T05:26:16;16.00;1.00
24338;DHT22;12457;50.832;4.346;2022-08-06T05:28:42;16.10;1.00
24338;DHT22;12457;50.832;4.346;2022-08-06T05:31:09;16.20;1.00
24338;DHT22;12457;50.832;4.346;2022-08-06T05:33:37;16.50;1.00
24338;DHT22;12457;50.832;4.346;2022-08-06T05:36:09;16.80;1.00
24338;DHT22;12457;50.832;4.346;2022-08-06T05:38:38;17.20;1.00
24338;DHT22;12457;50.832;4.346;2022-08-06T05:41:09;17.80;1.00
24338;DHT22;12457;50.832;4.346;2022-08-06T05:43:36;18.10;1.00
24338;DHT22;12457;50.832;4.346;2022-08-06T05:46:08;18.50;1.00
24338;DHT22;12457;50.832;4.346;2022-08-06T05:48:38;18.80;1.00
24338;DHT22;12457;50.832;4.346;2022-08-06T05:51:15;19.00;1.00
24338;DHT22;12457;50.832;4.346;2022-08-06T05:53:53;19.20;99.90
24338;DHT22;12457;50.832;4.346;2022-08-06T05:56:28;19.50;99.90
24338;DHT22;12457;50.832;4.346;2022-08-06T05:59:08;19.80;99.90
24338;DHT22;12457;50.832;4.346;2022-08-06T06:01:48;20.10;99.90
24338;DHT22;12457;50.832;4.346;2022-08-06T06:04:18;20.00;99.90
24338;DHT22;12457;50.832;4.346;2022-08-06T06:06:48;19.90;99.90
24338;DHT22;12457;50.832;4.346;2022-08-06T06:09:15;20.10;99.90
24338;DHT22;12457;50.832;4.346;2022-08-06T06:11:41;20.00;98.30
24338;DHT22;12457;50.832;4.346;2022-08-06T06:14:41;19.90;99.90
24338;DHT22;12457;50.832;4.346;2022-08-06T06:20:25;20.10;99.90
24338;DHT22;12457;50.832;4.346;2022-08-06T06:23:02;19.80;99.90
24338;DHT22;12457;50.832;4.346;2022-08-06T06:25:42;20.20;99.90
24338;DHT22;12457;50.832;4.346;2022-08-06T06:31:11;20.80;1.00
24338;DHT22;12457;50.832;4.346;2022-08-06T06:36:55;21.20;99.90
24338;DHT22;12457;50.832;4.346;2022-08-06T06:44:44;20.50;1.00
24338;DHT22;12457;50.832;4.346;2022-08-06T06:47:52;20.40;1.00
24338;DHT22;12457;50.832;4.346;2022-08-06T06:50:30;20.40;1.00
24338;DHT22;12457;50.832;4.346;2022-08-06T06:52:57;20.20;1.00
24338;DHT22;12457;50.832;4.346;2022-08-06T06:55:48;19.90;58.30
24338;DHT22;12457;50.832;4.346;2022-08-06T07:01:12;19.60;99.90
24338;DHT22;12457;50.832;4.346;2022-08-06T07:03:45;19.60;99.90
24338;DHT22;12457;50.832;4.346;2022-08-06T07:06:12;19.50;99.90
24338;DHT22;12457;50.832;4.346;2022-08-06T07:08:42;19.70;99.90
24338;DHT22;12457;50.832;4.346;2022-08-06T07:11:16;19.70;99.90
24338;DHT22;12457;50.832;4.346;2022-08-06T07:13:44;19.60;99.90
24338;DHT22;12457;50.832;4.346;2022-08-06T07:16:16;19.70;99.90
24338;DHT22;12457;50.832;4.346;2022-08-06T07:18:43;19.80;99.90
24338;DHT22;12457;50.832;4.346;2022-08-06T07:21:11;19.60;99.90
24338;DHT22;12457;50.832;4.346;2022-08-06T07:23:52;19.40;99.90
24338;DHT22;12457;50.832;4.346;2022-08-06T07:26:23;19.00;99.90
24338;DHT22;12457;50.832;4.346;2022-08-06T07:28:51;19.00;99.90
24338;DHT22;12457;50.832;4.346;2022-08-06T07:31:18;19.10;99.90
24338;DHT22;12457;50.832;4.346;2022-08-06T07:33:57;19.00;99.90
24338;DHT22;12457;50.832;4.346;2022-08-06T07:36:24;18.70;99.90
24338;DHT22;12457;50.832;4.346;2022-08-06T07:38:55;18.60;99.90
24338;DHT22;12457;50.832;4.346;2022-08-06T07:41:23;18.80;99.90
24338;DHT22;12457;50.832;4.346;2022-08-06T07:43:53;19.10;99.90
24338;DHT22;12457;50.832;4.346;2022-08-06T07:46:26;19.40;99.90
24338;DHT22;12457;50.832;4.346;2022-08-06T07:48:59;19.40;99.90
24338;DHT22;12457;50.832;4.346;2022-08-06T07:51:29;19.20;99.90
24338;DHT22;12457;50.832;4.346;2022-08-06T07:53:59;19.10;99.90
24338;DHT22;12457;50.832;4.346;2022-08-06T07:56:32;18.70;99.90
24338;DHT22;12457;50.832;4.346;2022-08-06T07:59:00;18.60;99.90
24338;DHT22;12457;50.832;4.346;2022-08-06T08:01:34;18.80;99.90
24338;DHT22;12457;50.832;4.346;2022-08-06T08:04:00;18.80;99.90
24338;DHT22;12457;50.832;4.346;2022-08-06T08:06:55;18.50;99.90
24338;DHT22;12457;50.832;4.346;2022-08-06T08:09:28;18.30;1.00
24338;DHT22;12457;50.832;4.346;2022-08-06T08:11:54;18.40;1.00
24338;DHT22;12457;50.832;4.346;2022-08-06T08:14:48;18.40;1.00
24338;DHT22;12457;50.832;4.346;2022-08-06T08:17:18;18.50;1.00
24338;DHT22;12457;50.832;4.346;2022-08-06T08:19:44;18.50;99.90
24338;DHT22;12457;50.832;4.346;2022-08-06T08:22:15;18.60;99.90
24338;DHT22;12457;50.832;4.346;2022-08-06T08:24:43;18.70;99.90
24338;DHT22;12457;50.832;4.346;2022-08-06T08:27:15;18.90;99.90
24338;DHT22;12457;50.832;4.346;2022-08-06T08:29:46;19.10;99.90
24338;DHT22;12457;50.832;4.346;2022-08-06T08:32:12;19.10;99.90
24338;DHT22;12457;50.832;4.346;2022-08-06T08:34:37;19.20;99.90
24338;DHT22;12457;50.832;4.346;2022-08-06T08:37:04;19.40;99.90
24338;DHT22;12457;50.832;4.346;2022-08-06T08:39:30;19.30;99.90
24338;DHT22;12457;50.832;4.346;2022-08-06T08:42:14;19.60;99.90
24338;DHT22;12457;50.832;4.346;2022-08-06T08:44:42;19.60;99.90
24338;DHT22;12457;50.832;4.346;2022-08-06T08:47:09;19.50;97.80
24338;DHT22;12457;50.832;4.346;2022-08-06T08:49:49;19.20;99.90
24338;DHT22;12457;50.832;4.346;2022-08-06T08:52:19;19.20;99.90
24338;DHT22;12457;50.832;4.346;2022-08-06T08:54:49;19.20;99.90
24338;DHT22;12457;50.832;4.346;2022-08-06T08:57:24;19.20;99.90
24338;DHT22;12457;50.832;4.346;2022-08-06T08:59:54;19.20;99.90
24338;DHT22;12457;50.832;4.346;2022-08-06T09:02:19;19.10;99.90
24338;DHT22;12457;50.832;4.346;2022-08-06T09:04:45;19.00;99.90
24338;DHT22;12457;50.832;4.346;2022-08-06T09:07:14;19.10;99.90
24338;DHT22;12457;50.832;4.346;2022-08-06T09:09:45;18.90;99.90
24338;DHT22;12457;50.832;4.346;2022-08-06T09:12:11;18.90;99.90
24338;DHT22;12457;50.832;4.346;2022-08-06T09:14:36;18.90;99.90
24338;DHT22;12457;50.832;4.346;2022-08-06T09:17:06;18.90;99.90
24338;DHT22;12457;50.832;4.346;2022-08-06T09:19:35;19.10;99.90
24338;DHT22;12457;50.832;4.346;2022-08-06T09:22:01;19.10;99.90
24338;DHT22;12457;50.832;4.346;2022-08-06T09:24:27;19.30;99.90
24338;DHT22;12457;50.832;4.346;2022-08-06T09:27:16;19.60;1.00
24338;DHT22;12457;50.832;4.346;2022-08-06T09:29:53;19.40;1.00
24338;DHT22;12457;50.832;4.346;2022-08-06T09:32:40;19.40;1.00
24338;DHT22;12457;50.832;4.346;2022-08-06T09:37:46;19.50;99.90
24338;DHT22;12457;50.832;4.346;2022-08-06T09:40:19;19.70;1.00
24338;DHT22;12457;50.832;4.346;2022-08-06T09:42:47;19.70;99.90
24338;DHT22;12457;50.832;4.346;2022-08-06T09:45:19;19.70;99.90
24338;DHT22;12457;50.832;4.346;2022-08-06T09:47:47;19.60;99.90
24338;DHT22;12457;50.832;4.346;2022-08-06T09:50:13;19.60;1.00
24338;DHT22;12457;50.832;4.346;2022-08-06T09:52:39;19.60;1.00
24338;DHT22;12457;50.832;4.346;2022-08-06T09:55:05;19.50;1.00
24338;DHT22;12457;50.832;4.346;2022-08-06T09:57:45;19.60;1.00
24338;DHT22;12457;50.832;4.346;2022-08-06T10:00:30;19.60;1.00
24338;DHT22;12457;50.832;4.346;2022-08-06T10:02:59;19.70;14.90
24338;DHT22;12457;50.832;4.346;2022-08-06T10:05:32;19.90;1.00
24338;DHT22;12457;50.832;4.346;2022-08-06T10:08:23;20.20;1.00
24338;DHT22;12457;50.832;4.346;2022-08-06T10:10:55;20.20;89.70
24338;DHT22;12457;50.832;4.346;2022-08-06T10:13:30;20.40;1.00
24338;DHT22;12457;50.832;4.346;2022-08-06T10:15:58;20.60;99.90
24338;DHT22;12457;50.832;4.346;2022-08-06T10:21:16;20.40;99.90
24338;DHT22;12457;50.832;4.346;2022-08-06T10:23:45;20.60;99.90
24338;DHT22;12457;50.832;4.346;2022-08-06T10:26:13;20.50;99.90
24338;DHT22;12457;50.832;4.346;2022-08-06T10:28:41;20.60;99.90
24338;DHT22;12457;50.832;4.346;2022-08-06T10:31:10;20.60;99.90
24338;DHT22;12457;50.832;4.346;2022-08-06T10:33:55;20.60;1.00
24338;DHT22;12457;50.832;4.346;2022-08-06T10:36:53;20.60;1.00
24338;DHT22;12457;50.832;4.346;2022-08-06T10:39:21;20.60;1.00
24338;DHT22;12457;50.832;4.346;2022-08-06T10:41:54;20.70;1.00
24338;DHT22;12457;50.832;4.346;2022-08-06T10:44:28;20.70;99.90
24338;DHT22;12457;50.832;4.346;2022-08-06T10:46:59;20.70;18.10
24338;DHT22;12457;50.832;4.346;2022-08-06T10:49:29;20.70;29.40
24338;DHT22;12457;50.832;4.346;2022-08-06T10:51:56;20.60;99.90
24338;DHT22;12457;50.832;4.346;2022-08-06T10:54:22;20.70;99.90
24338;DHT22;12457;50.832;4.346;2022-08-06T10:56:50;20.80;99.90
24338;DHT22;12457;50.832;4.346;2022-08-06T10:59:24;21.10;99.90
24338;DHT22;12457;50.832;4.346;2022-08-06T11:04:58;21.50;99.90
24338;DHT22;12457;50.832;4.346;2022-08-06T11:10:24;21.30;99.90
24338;DHT22;12457;50.832;4.346;2022-08-06T11:15:55;21.40;99.90
24338;DHT22;12457;50.832;4.346;2022-08-06T11:19:03;21.40;1.00
24338;DHT22;12457;50.832;4.346;2022-08-06T11:21:46;21.10;99.90
24338;DHT22;12457;50.832;4.346;2022-08-06T11:24:13;21.20;1.00
24338;DHT22;12457;50.832;4.346;2022-08-06T11:26:42;21.60;1.00
24338;DHT22;12457;50.832;4.346;2022-08-06T11:29:10;21.80;99.90
24338;DHT22;12457;50.832;4.346;2022-08-06T11:31:48;21.90;99.90
24338;DHT22;12457;50.832;4.346;2022-08-06T11:34:24;22.10;99.90
24338;DHT22;12457;50.832;4.346;2022-08-06T11:37:08;22.10;99.90
24338;DHT22;12457;50.832;4.346;2022-08-06T11:40:04;22.10;99.90
24338;DHT22;12457;50.832;4.346;2022-08-06T11:42:42;21.70;99.90
24338;DHT22;12457;50.832;4.346;2022-08-06T11:45:10;21.50;99.90
24338;DHT22;12457;50.832;4.346;2022-08-06T11:48:05;21.90;99.90
24338;DHT22;12457;50.832;4.346;2022-08-06T11:50:32;22.30;1.00
24338;DHT22;12457;50.832;4.346;2022-08-06T11:52:58;22.60;1.00
24338;DHT22;12457;50.832;4.346;2022-08-06T11:55:24;22.80;99.90
24338;DHT22;12457;50.832;4.346;2022-08-06T12:00:57;22.60;99.90
24338;DHT22;12457;50.832;4.346;2022-08-06T12:03:39;21.90;99.90
24338;DHT22;12457;50.832;4.346;2022-08-06T12:06:19;21.70;99.90
24338;DHT22;12457;50.832;4.346;2022-08-06T12:09:05;22.10;99.90
24338;DHT22;12457;50.832;4.346;2022-08-06T12:11:31;22.60;99.90
24338;DHT22;12457;50.832;4.346;2022-08-06T12:13:58;22.50;99.90
24338;DHT22;12457;50.832;4.346;2022-08-06T12:16:35;22.30;99.90
24338;DHT22;12457;50.832;4.346;2022-08-06T12:19:03;21.90;99.90
24338;DHT22;12457;50.832;4.346;2022-08-06T12:21:29;22.00;99.90
24338;DHT22;12457;50.832;4.346;2022-08-06T12:23:55;22.10;99.90
24338;DHT22;12457;50.832;4.346;2022-08-06T12:26:21;22.40;99.90
24338;DHT22;12457;50.832;4.346;2022-08-06T12:28:48;22.60;99.90
24338;DHT22;12457;50.832;4.346;2022-08-06T12:31:31;22.50;52.30
24338;DHT22;12457;50.832;4.346;2022-08-06T12:33:57;22.50;1.00
24338;DHT22;12457;50.832;4.346;2022-08-06T12:36:29;22.40;1.00
24338;DHT22;12457;50.832;4.346;2022-08-06T12:38:57;22.50;1.00
24338;DHT22;12457;50.832;4.346;2022-08-06T12:41:22;22.60;11.70
24338;DHT22;12457;50.832;4.346;2022-08-06T12:43:51;22.50;1.00
24338;DHT22;12457;50.832;4.346;2022-08-06T12:46:18;22.70;1.00
24338;DHT22;12457;50.832;4.346;2022-08-06T12:48:50;22.80;1.00
24338;DHT22;12457;50.832;4.346;2022-08-06T12:51:16;23.00;1.00
24338;DHT22;12457;50.832;4.346;2022-08-06T12:53:49;23.10;1.00
24338;DHT22;12457;50.832;4.346;2022-08-06T12:56:16;22.90;1.00
24338;DHT22;12457;50.832;4.346;2022-08-06T12:58:46;22.80;1.00
24338;DHT22;12457;50.832;4.346;2022-08-06T13:01:32;22.60;1.00
24338;DHT22;12457;50.832;4.346;2022-08-06T13:04:05;22.60;1.00
24338;DHT22;12457;50.832;4.346;2022-08-06T13:06:33;22.80;1.00
24338;DHT22;12457;50.832;4.346;2022-08-06T13:08:59;23.00;99.90
24338;DHT22;12457;50.832;4.346;2022-08-06T13:11:29;23.30;99.90
24338;DHT22;12457;50.832;4.346;2022-08-06T13:13:56;23.60;99.90
24338;DHT22;12457;50.832;4.346;2022-08-06T13:16:26;23.60;99.90
24338;DHT22;12457;50.832;4.346;2022-08-06T13:19:15;23.60;99.90
24338;DHT22;12457;50.832;4.346;2022-08-06T13:21:42;23.30;99.90
24338;DHT22;12457;50.832;4.346;2022-08-06T13:24:09;23.30;99.90
24338;DHT22;12457;50.832;4.346;2022-08-06T13:26:51;23.40;99.90
24338;DHT22;12457;50.832;4.346;2022-08-06T13:29:23;23.20;99.90
24338;DHT22;12457;50.832;4.346;2022-08-06T13:32:05;23.00;99.90
24338;DHT22;12457;50.832;4.346;2022-08-06T13:35:06;23.10;99.90
24338;DHT22;12457;50.832;4.346;2022-08-06T13:40:14;23.00;99.90
24338;DHT22;12457;50.832;4.346;2022-08-06T13:45:22;23.10;99.90
24338;DHT22;12457;50.832;4.346;2022-08-06T13:47:48;22.90;99.90
24338;DHT22;12457;50.832;4.346;2022-08-06T13:50:20;22.80;99.90
24338;DHT22;12457;50.832;4.346;2022-08-06T13:52:46;22.80;99.90
24338;DHT22;12457;50.832;4.346;2022-08-06T13:55:12;22.80;99.90
24338;DHT22;12457;50.832;4.346;2022-08-06T13:57:38;22.70;99.90
24338;DHT22;12457;50.832;4.346;2022-08-06T14:00:05;22.90;99.90
24338;DHT22;12457;50.832;4.346;2022-08-06T14:02:37;23.00;99.90
24338;DHT22;12457;50.832;4.346;2022-08-06T14:05:06;23.10;99.90
24338;DHT22;12457;50.832;4.346;2022-08-06T14:07:32;23.40;99.90
24338;DHT22;12457;50.832;4.346;2022-08-06T14:09:58;23.70;99.90
24338;DHT22;12457;50.832;4.346;2022-08-06T14:12:24;23.90;99.90
24338;DHT22;12457;50.832;4.346;2022-08-06T14:14:50;24.10;99.90
24338;DHT22;12457;50.832;4.346;2022-08-06T14:17:16;23.90;99.90
24338;DHT22;12457;50.832;4.346;2022-08-06T14:19:56;23.60;99.90
24338;DHT22;12457;50.832;4.346;2022-08-06T14:22:31;23.50;99.90
24338;DHT22;12457;50.832;4.346;2022-08-06T14:24:57;23.20;99.90
24338;DHT22;12457;50.832;4.346;2022-08-06T14:27:22;22.90;99.90
24338;DHT22;12457;50.832;4.346;2022-08-06T14:29:48;22.80;99.90
24338;DHT22;12457;50.832;4.346;2022-08-06T14:32:14;22.80;99.90
24338;DHT22;12457;50.832;4.346;2022-08-06T14:34:39;22.90;99.90
24338;DHT22;12457;50.832;4.346;2022-08-06T14:37:06;22.90;99.90
24338;DHT22;12457;50.832;4.346;2022-08-06T14:39:32;23.10;99.90
24338;DHT22;12457;50.832;4.346;2022-08-06T14:41:58;23.30;99.90
24338;DHT22;12457;50.832;4.346;2022-08-06T14:44:41;23.50;99.90
24338;DHT22;12457;50.832;4.346;2022-08-06T14:47:24;23.50;99.90
24338;DHT22;12457;50.832;4.346;2022-08-06T14:49:51;23.70;99.90
24338;DHT22;12457;50.832;4.346;2022-08-06T14:52:17;23.80;99.90
24338;DHT22;12457;50.832;4.346;2022-08-06T14:54:46;23.70;99.90
24338;DHT22;12457;50.832;4.346;2022-08-06T14:57:15;23.80;99.90
24338;DHT22;12457;50.832;4.346;2022-08-06T14:59:42;23.60;94.60
24338;DHT22;12457;50.832;4.346;2022-08-06T15:02:08;23.60;99.90
24338;DHT22;12457;50.832;4.346;2022-08-06T15:04:33;23.60;99.90
24338;DHT22;12457;50.832;4.346;2022-08-06T15:06:59;23.70;99.90
24338;DHT22;12457;50.832;4.346;2022-08-06T15:09:26;23.50;97.10
24338;DHT22;12457;50.832;4.346;2022-08-06T15:11:52;23.30;96.50
24338;DHT22;12457;50.832;4.346;2022-08-06T15:14:17;23.10;90.90
24338;DHT22;12457;50.832;4.346;2022-08-06T15:16:43;23.00;93.60
24338;DHT22;12457;50.832;4.346;2022-08-06T15:19:16;23.20;99.90
24338;DHT22;12457;50.832;4.346;2022-08-06T15:21:45;23.40;85.50
24338;DHT22;12457;50.832;4.346;2022-08-06T15:24:11;23.70;99.90
24338;DHT22;12457;50.832;4.346;2022-08-06T15:26:37;24.00;99.90
24338;DHT22;12457;50.832;4.346;2022-08-06T15:29:02;23.70;70.50
24338;DHT22;12457;50.832;4.346;2022-08-06T15:31:28;23.50;60.30
24338;DHT22;12457;50.832;4.346;2022-08-06T15:33:56;23.30;50.30
24338;DHT22;12457;50.832;4.346;2022-08-06T15:36:33;23.20;66.00
24338;DHT22;12457;50.832;4.346;2022-08-06T15:38:59;23.20;39.10
24338;DHT22;12457;50.832;4.346;2022-08-06T15:41:25;23.10;40.80
24338;DHT22;12457;50.832;4.346;2022-08-06T15:43:53;22.90;49.10
24338;DHT22;12457;50.832;4.346;2022-08-06T15:46:19;22.90;71.80
24338;DHT22;12457;50.832;4.346;2022-08-06T15:48:46;23.10;78.60
24338;DHT22;12457;50.832;4.346;2022-08-06T15:51:12;23.10;63.80
24338;DHT22;12457;50.832;4.346;2022-08-06T15:53:43;23.00;71.00
24338;DHT22;12457;50.832;4.346;2022-08-06T15:56:12;23.30;78.20
24338;DHT22;12457;50.832;4.346;2022-08-06T15:58:38;23.30;80.30
24338;DHT22;12457;50.832;4.346;2022-08-06T16:01:03;23.60;81.30
24338;DHT22;12457;50.832;4.346;2022-08-06T16:03:32;23.70;80.60
24338;DHT22;12457;50.832;4.346;2022-08-06T16:06:00;23.80;28.00
24338;DHT22;12457;50.832;4.346;2022-08-06T16:08:26;23.80;51.60
24338;DHT22;12457;50.832;4.346;2022-08-06T16:10:52;23.70;29.50
24338;DHT22;12457;50.832;4.346;2022-08-06T16:13:17;23.20;12.30
24338;DHT22;12457;50.832;4.346;2022-08-06T16:15:46;23.00;15.60
24338;DHT22;12457;50.832;4.346;2022-08-06T16:18:14;22.90;27.40
24338;DHT22;12457;50.832;4.346;2022-08-06T16:20:41;22.60;39.50
24338;DHT22;12457;50.832;4.346;2022-08-06T16:23:08;22.40;63.90
24338;DHT22;12457;50.832;4.346;2022-08-06T16:25:34;22.30;82.30
24338;DHT22;12457;50.832;4.346;2022-08-06T16:28:00;22.20;99.90
24338;DHT22;12457;50.832;4.346;2022-08-06T16:30:26;22.30;99.90
24338;DHT22;12457;50.832;4.346;2022-08-06T16:32:51;22.50;99.90
24338;DHT22;12457;50.832;4.346;2022-08-06T16:35:27;22.70;99.90
24338;DHT22;12457;50.832;4.346;2022-08-06T16:37:59;22.70;84.60
24338;DHT22;12457;50.832;4.346;2022-08-06T16:40:25;22.80;98.80
24338;DHT22;12457;50.832;4.346;2022-08-06T16:43:02;23.00;98.50
24338;DHT22;12457;50.832;4.346;2022-08-06T16:45:38;23.30;93.80
24338;DHT22;12457;50.832;4.346;2022-08-06T16:48:04;23.30;80.20
24338;DHT22;12457;50.832;4.346;2022-08-06T16:50:30;23.20;56.10
24338;DHT22;12457;50.832;4.346;2022-08-06T16:52:55;23.10;51.90
24338;DHT22;12457;50.832;4.346;2022-08-06T16:55:21;23.10;53.00
24338;DHT22;12457;50.832;4.346;2022-08-06T16:57:47;23.30;58.20
24338;DHT22;12457;50.832;4.346;2022-08-06T17:00:13;23.30;49.40
24338;DHT22;12457;50.832;4.346;2022-08-06T17:02:41;23.00;34.30